Time;durP1;ratioP1;P1;durP2;ratioP2;P2;SDS_P1;SDS_P2;PMS_P1;PMS_P2;Temp;Humidity;BMP_temperature;BMP_pressure;BME280_temperature;BME280_humidity;BME280_pressure;Samples;Min_cycle;Max_cycle;Signal;HPM_P1;HPM_P2
2023/09/29 00:01:33;;;;;;;12.88;7.18;;;;;;;;;;5073733;28;20382;-71
2023/09/29 00:04:00;;;;;;;9.98;6.50;;;;;;;;;;5071787;28;20045;-71
2023/09/29 00:06:26;;;;;;;12.10;7.40;;;;;;;;;;5073547;28;20040;-72
2023/09/29 00:08:52;;;;;;;11.60;7.30;;;;;;;;;;5073400;28;20040;-72
2023/09/29 00:11:17;;;;;;;12.13;7.65;;;;;;;;;;5073467;28;20108;-72
2023/09/29 00:13:43;;;;;;;15.68;8.38;;;;;;;;;;5073672;28;20029;-72
2023/09/29 00:16:09;;;;;;;14.45;7.65;;;;;;;;;;5072933;28;20016;-72
2023/09/29 00:18:37;;;;;;;17.08;8.75;;;;;;;;;;5067070;28;20048;-72
2023/09/29 00:21:02;;;;;;;12.48;7.22;;;;;;;;;;5053483;28;20100;-72
2023/09/29 00:23:28;;;;;;;13.82;7.03;;;;;;;;;;5052604;28;20448;-72
2023/09/29 00:25:55;;;;;;;14.98;6.82;;;;;;;;;;5053352;28;20060;-72
2023/09/29 00:28:21;;;;;;;12.68;7.82;;;;;;;;;;5053537;28;20040;-72
2023/09/29 00:30:47;;;;;;;10.05;6.78;;;;;;;;;;5053560;28;20451;-71
2023/09/29 00:33:13;;;;;;;16.83;7.65;;;;;;;;;;5052035;28;20124;-72
2023/09/29 00:35:39;;;;;;;11.65;7.28;;;;;;;;;;5053234;28;20516;-72
2023/09/29 00:38:05;;;;;;;15.02;7.07;;;;;;;;;;5052097;28;20075;-71
2023/09/29 00:40:32;;;;;;;11.70;6.22;;;;;;;;;;5068693;28;20490;-71
2023/09/29 00:42:59;;;;;;;18.00;7.05;;;;;;;;;;5052061;28;20029;-72
2023/09/29 00:45:26;;;;;;;15.40;7.55;;;;;;;;;;5052123;28;20059;-72
2023/09/29 00:48:07;;;;;;;10.27;6.45;;;;;;;;;;5051788;28;20043;-73
2023/09/29 00:50:34;;;;;;;13.25;7.40;;;;;;;;;;5064852;28;20131;-72
2023/09/29 00:53:11;;;;;;;17.98;6.80;;;;;;;;;;5073085;28;20429;-72
2023/09/29 00:55:40;;;;;;;10.65;6.75;;;;;;;;;;5056252;28;20106;-72
2023/09/29 00:58:06;;;;;;;18.77;7.93;;;;;;;;;;5088408;28;20032;-72
2023/09/29 01:00:36;;;;;;;17.60;7.35;;;;;;;;;;5073103;28;20445;-72
2023/09/29 01:03:11;;;;;;;12.38;7.35;;;;;;;;;;5071629;28;20185;-72
2023/09/29 01:05:43;;;;;;;12.43;6.97;;;;;;;;;;5072733;28;20055;-71
2023/09/29 01:08:20;;;;;;;11.07;6.22;;;;;;;;;;5071499;28;20035;-72
2023/09/29 01:10:46;;;;;;;11.00;6.78;;;;;;;;;;5072458;28;20028;-72
2023/09/29 01:13:12;;;;;;;9.90;6.70;;;;;;;;;;5072509;28;20106;-72
2023/09/29 01:15:39;;;;;;;12.25;6.35;;;;;;;;;;5067023;28;20077;-72
2023/09/29 01:18:11;;;;;;;9.70;5.72;;;;;;;;;;5088124;28;20468;-71
2023/09/29 01:20:40;;;;;;;11.32;5.65;;;;;;;;;;5051255;28;20032;-72
2023/09/29 01:23:07;;;;;;;11.65;5.05;;;;;;;;;;5059022;28;20374;-72
2023/09/29 01:25:34;;;;;;;9.35;5.18;;;;;;;;;;5087790;28;20043;-72
2023/09/29 01:28:01;;;;;;;9.75;5.80;;;;;;;;;;5070781;28;20398;-72
2023/09/29 01:30:27;;;;;;;7.10;4.75;;;;;;;;;;5070371;28;20110;-72
2023/09/29 01:32:56;;;;;;;25.98;7.75;;;;;;;;;;5071005;28;20478;-72
2023/09/29 01:35:27;;;;;;;15.00;6.85;;;;;;;;;;5070832;28;20029;-71
2023/09/29 01:37:55;;;;;;;13.10;5.82;;;;;;;;;;5070800;28;20036;-71
2023/09/29 01:40:23;;;;;;;8.38;4.82;;;;;;;;;;5072092;28;20023;-72
2023/09/29 01:42:50;;;;;;;9.98;5.45;;;;;;;;;;5070812;28;20131;-72
2023/09/29 01:45:18;;;;;;;8.82;5.13;;;;;;;;;;5071847;28;20083;-72
2023/09/29 01:47:48;;;;;;;7.85;4.80;;;;;;;;;;5070789;28;20120;-72
2023/09/29 01:50:19;;;;;;;8.10;4.97;;;;;;;;;;5071999;28;20545;-72
2023/09/29 01:52:47;;;;;;;9.48;5.22;;;;;;;;;;5054087;28;20513;-73
2023/09/29 01:55:19;;;;;;;10.85;5.43;;;;;;;;;;5070489;28;20029;-72
2023/09/29 01:57:47;;;;;;;25.88;6.68;;;;;;;;;;5071952;28;20487;-72
2023/09/29 02:00:19;;;;;;;12.35;5.70;;;;;;;;;;5070629;28;20035;-72
2023/09/29 02:02:46;;;;;;;7.70;4.97;;;;;;;;;;5050390;28;20410;-72
2023/09/29 02:05:13;;;;;;;10.55;5.85;;;;;;;;;;5053795;28;20503;-73
2023/09/29 02:07:39;;;;;;;16.23;5.60;;;;;;;;;;5070938;28;20445;-72
2023/09/29 02:10:09;;;;;;;16.13;6.40;;;;;;;;;;5070563;28;20129;-72
2023/09/29 02:12:46;;;;;;;8.68;5.93;;;;;;;;;;5070530;28;20043;-70
2023/09/29 02:15:16;;;;;;;9.80;5.38;;;;;;;;;;5070278;28;20040;-72
2023/09/29 02:17:44;;;;;;;15.35;6.25;;;;;;;;;;5071459;28;20048;-72
2023/09/29 02:20:17;;;;;;;14.60;6.65;;;;;;;;;;5072391;28;20025;-72
2023/09/29 02:22:42;;;;;;;9.15;6.22;;;;;;;;;;5072580;28;20552;-72
2023/09/29 02:25:17;;;;;;;10.75;5.30;;;;;;;;;;5087119;28;20029;-71
2023/09/29 02:27:43;;;;;;;11.40;6.10;;;;;;;;;;5070296;28;20477;-70
2023/09/29 02:30:11;;;;;;;15.65;6.03;;;;;;;;;;5103478;28;20122;-71
2023/09/29 02:32:38;;;;;;;21.77;7.35;;;;;;;;;;5090639;28;20499;-73
2023/09/29 02:35:05;;;;;;;19.70;7.57;;;;;;;;;;5090056;28;20051;-71
2023/09/29 02:37:32;;;;;;;21.15;7.18;;;;;;;;;;5078348;28;20549;-73
2023/09/29 02:39:58;;;;;;;15.65;6.85;;;;;;;;;;5092068;28;20070;-72
2023/09/29 02:42:24;;;;;;;21.40;6.18;;;;;;;;;;5095559;28;20369;-72
2023/09/29 02:44:50;;;;;;;17.90;6.90;;;;;;;;;;5093634;28;20020;-73
2023/09/29 02:47:16;;;;;;;18.73;6.80;;;;;;;;;;5095291;28;20074;-72
2023/09/29 02:49:41;;;;;;;14.43;6.13;;;;;;;;;;5093863;28;20025;-73
2023/09/29 02:52:07;;;;;;;15.38;6.47;;;;;;;;;;5077229;28;20115;-71
2023/09/29 02:54:33;;;;;;;9.48;6.35;;;;;;;;;;5081232;28;20039;-72
2023/09/29 02:56:59;;;;;;;15.27;6.40;;;;;;;;;;5080028;28;20036;-72
2023/09/29 02:59:25;;;;;;;16.83;6.97;;;;;;;;;;5073750;28;20107;-72
2023/09/29 03:01:51;;;;;;;14.68;6.70;;;;;;;;;;5073461;28;20127;-72
2023/09/29 03:04:17;;;;;;;14.20;6.35;;;;;;;;;;5073477;28;20107;-70
2023/09/29 03:06:43;;;;;;;20.30;7.75;;;;;;;;;;5073180;28;20546;-71
2023/09/29 03:09:13;;;;;;;14.93;7.18;;;;;;;;;;5074644;28;20052;-73
2023/09/29 03:11:42;;;;;;;16.02;7.70;;;;;;;;;;5074647;28;20037;-73
2023/09/29 03:14:08;;;;;;;24.35;8.63;;;;;;;;;;5074706;28;20036;-72
2023/09/29 03:16:35;;;;;;;11.70;7.18;;;;;;;;;;5073443;28;20112;-73
2023/09/29 03:19:03;;;;;;;14.60;6.93;;;;;;;;;;5079871;28;20016;-73
2023/09/29 03:21:29;;;;;;;18.10;8.02;;;;;;;;;;5078941;28;20047;-71
2023/09/29 03:23:55;;;;;;;25.63;8.98;;;;;;;;;;5071396;28;20025;-73
2023/09/29 03:26:22;;;;;;;19.00;8.30;;;;;;;;;;5072249;28;20447;-71
2023/09/29 03:28:49;;;;;;;19.67;8.13;;;;;;;;;;5073792;28;20025;-72
2023/09/29 03:31:16;;;;;;;19.73;8.02;;;;;;;;;;5073476;28;20469;-72
2023/09/29 03:33:42;;;;;;;14.73;8.43;;;;;;;;;;5072580;28;20028;-72
2023/09/29 03:36:08;;;;;;;16.92;8.63;;;;;;;;;;5071694;28;20394;-71
2023/09/29 03:38:37;;;;;;;17.27;8.55;;;;;;;;;;5072800;28;20024;-72
2023/09/29 03:41:06;;;;;;;11.38;7.63;;;;;;;;;;5072951;28;20054;-72
2023/09/29 03:43:32;;;;;;;24.70;8.90;;;;;;;;;;5071932;28;20197;-71
2023/09/29 03:45:57;;;;;;;19.55;8.32;;;;;;;;;;5071581;28;20115;-72
2023/09/29 03:48:25;;;;;;;20.10;8.57;;;;;;;;;;5071754;28;20463;-72
2023/09/29 03:50:50;;;;;;;24.20;8.57;;;;;;;;;;5072260;28;20070;-71
2023/09/29 03:53:17;;;;;;;17.63;8.18;;;;;;;;;;5072296;28;20025;-73
2023/09/29 03:55:44;;;;;;;24.85;9.50;;;;;;;;;;5073216;28;20091;-72
2023/09/29 03:58:10;;;;;;;23.02;9.05;;;;;;;;;;5073587;28;20044;-73
2023/09/29 04:00:36;;;;;;;19.65;9.10;;;;;;;;;;5072105;28;20031;-73
2023/09/29 04:03:04;;;;;;;21.48;8.73;;;;;;;;;;5072809;28;20020;-71
2023/09/29 04:05:29;;;;;;;24.98;9.30;;;;;;;;;;5072855;28;20105;-72
2023/09/29 04:07:55;;;;;;;27.50;9.38;;;;;;;;;;5072696;28;20036;-72
2023/09/29 04:10:21;;;;;;;20.10;8.52;;;;;;;;;;5072974;28;20494;-71
2023/09/29 04:12:47;;;;;;;12.82;6.82;;;;;;;;;;5072939;28;20439;-71
2023/09/29 04:15:14;;;;;;;14.05;8.07;;;;;;;;;;5068151;28;20032;-72
2023/09/29 04:17:40;;;;;;;14.05;7.45;;;;;;;;;;5057353;28;20487;-70
2023/09/29 04:20:07;;;;;;;17.05;8.75;;;;;;;;;;5052658;28;20037;-73
2023/09/29 04:22:34;;;;;;;20.23;7.25;;;;;;;;;;5053063;28;20029;-74
2023/09/29 04:25:00;;;;;;;21.73;8.10;;;;;;;;;;5052319;28;20348;-72
2023/09/29 04:27:26;;;;;;;11.88;7.40;;;;;;;;;;5062568;28;20024;-72
2023/09/29 04:29:52;;;;;;;14.57;7.45;;;;;;;;;;5072354;28;20029;-73
2023/09/29 04:32:18;;;;;;;17.48;8.30;;;;;;;;;;5072218;28;20389;-73
2023/09/29 04:34:45;;;;;;;16.50;6.75;;;;;;;;;;5071553;28;20051;-73
2023/09/29 04:37:13;;;;;;;19.85;7.68;;;;;;;;;;5072048;28;20032;-72
2023/09/29 04:39:39;;;;;;;14.77;6.65;;;;;;;;;;5071916;28;20088;-73
2023/09/29 04:42:05;;;;;;;16.42;6.28;;;;;;;;;;5072164;28;20112;-72
2023/09/29 04:44:31;;;;;;;17.48;6.82;;;;;;;;;;5071807;28;20029;-71
2023/09/29 04:46:57;;;;;;;20.38;6.82;;;;;;;;;;5071942;28;20036;-71
2023/09/29 04:49:23;;;;;;;19.08;6.03;;;;;;;;;;5071702;28;20169;-73
2023/09/29 04:51:48;;;;;;;15.45;6.22;;;;;;;;;;5072038;28;20382;-72
2023/09/29 04:54:14;;;;;;;13.57;6.00;;;;;;;;;;5071474;28;20126;-72
2023/09/29 04:56:41;;;;;;;23.10;7.32;;;;;;;;;;5062832;28;20040;-74
2023/09/29 04:59:08;;;;;;;26.42;8.00;;;;;;;;;;5071668;28;20482;-73
2023/09/29 05:01:36;;;;;;;22.75;7.20;;;;;;;;;;5070763;28;20107;-71
2023/09/29 05:04:05;;;;;;;20.15;6.40;;;;;;;;;;5070373;28;20036;-73
2023/09/29 05:06:30;;;;;;;16.95;5.70;;;;;;;;;;5071345;28;20052;-73
2023/09/29 05:08:56;;;;;;;16.83;6.05;;;;;;;;;;5071928;28;20078;-72
2023/09/29 05:11:24;;;;;;;14.20;6.00;;;;;;;;;;5071827;28;20431;-72
2023/09/29 05:13:51;;;;;;;28.45;7.18;;;;;;;;;;5070524;28;20039;-73
2023/09/29 05:16:17;;;;;;;26.73;6.57;;;;;;;;;;5072016;28;20025;-74
2023/09/29 05:18:44;;;;;;;21.35;7.50;;;;;;;;;;5071848;28;20028;-72
2023/09/29 05:21:11;;;;;;;18.90;6.38;;;;;;;;;;5070111;28;20016;-71
2023/09/29 05:23:37;;;;;;;16.27;6.35;;;;;;;;;;5071540;28;20036;-72
2023/09/29 05:26:05;;;;;;;16.65;6.82;;;;;;;;;;5071204;28;20123;-72
2023/09/29 05:28:32;;;;;;;21.20;6.68;;;;;;;;;;5071101;28;20029;-74
2023/09/29 05:30:59;;;;;;;12.05;6.05;;;;;;;;;;5071130;28;20025;-72
2023/09/29 05:33:25;;;;;;;35.13;8.25;;;;;;;;;;5071749;28;20041;-74
2023/09/29 05:35:50;;;;;;;20.73;6.97;;;;;;;;;;5071100;28;20471;-74
2023/09/29 05:38:18;;;;;;;22.13;6.85;;;;;;;;;;5071320;28;20090;-74
2023/09/29 05:40:47;;;;;;;24.38;6.40;;;;;;;;;;5071131;28;20103;-73
2023/09/29 05:43:13;;;;;;;20.20;7.43;;;;;;;;;;5071250;28;20087;-73
2023/09/29 05:45:41;;;;;;;15.75;5.88;;;;;;;;;;5067970;28;20044;-73
2023/09/29 05:48:07;;;;;;;14.93;5.78;;;;;;;;;;5066061;28;20083;-73
2023/09/29 05:50:33;;;;;;;18.83;6.63;;;;;;;;;;5068420;28;20033;-72
2023/09/29 05:52:59;;;;;;;30.10;7.85;;;;;;;;;;5070659;28;20028;-72
2023/09/29 05:55:25;;;;;;;15.25;6.20;;;;;;;;;;5071214;28;20024;-72
2023/09/29 05:57:51;;;;;;;15.60;6.13;;;;;;;;;;5070917;28;20044;-71
2023/09/29 06:00:18;;;;;;;20.67;6.15;;;;;;;;;;5070605;28;20020;-74
2023/09/29 06:02:45;;;;;;;18.65;6.47;;;;;;;;;;5070982;28;20132;-73
2023/09/29 06:05:11;;;;;;;15.95;6.22;;;;;;;;;;5071136;28;20064;-73
2023/09/29 06:07:36;;;;;;;17.25;5.70;;;;;;;;;;5071076;28;20032;-72
2023/09/29 06:10:04;;;;;;;15.50;6.97;;;;;;;;;;5070800;28;20069;-72
2023/09/29 06:12:30;;;;;;;16.38;6.25;;;;;;;;;;5070676;28;20029;-72
2023/09/29 06:14:56;;;;;;;21.48;6.53;;;;;;;;;;5072315;28;20044;-71
2023/09/29 06:17:22;;;;;;;26.75;6.47;;;;;;;;;;5077391;28;20313;-72
2023/09/29 06:19:48;;;;;;;20.63;6.38;;;;;;;;;;5077429;28;20092;-72
2023/09/29 06:22:16;;;;;;;20.05;7.03;;;;;;;;;;5077562;28;20111;-72
2023/09/29 06:24:44;;;;;;;16.77;6.47;;;;;;;;;;5075804;28;20385;-74
2023/09/29 06:27:12;;;;;;;16.00;6.22;;;;;;;;;;5077405;28;20508;-73
2023/09/29 06:29:40;;;;;;;15.98;6.50;;;;;;;;;;5077799;28;20017;-72
2023/09/29 06:32:09;;;;;;;15.88;6.50;;;;;;;;;;5077410;28;20500;-73
2023/09/29 06:34:35;;;;;;;14.98;6.20;;;;;;;;;;5077326;28;20389;-77
2023/09/29 06:37:01;;;;;;;13.10;5.78;;;;;;;;;;5072279;28;20469;-73
2023/09/29 06:39:27;;;;;;;20.42;7.55;;;;;;;;;;5073318;28;20020;-75
2023/09/29 06:41:53;;;;;;;17.83;6.60;;;;;;;;;;5076830;28;20024;-74
2023/09/29 06:44:20;;;;;;;18.90;6.18;;;;;;;;;;5076885;28;20024;-74
2023/09/29 06:46:46;;;;;;;23.80;7.63;;;;;;;;;;5076912;28;20464;-75
2023/09/29 06:49:12;;;;;;;17.60;6.47;;;;;;;;;;5075655;28;20029;-73
2023/09/29 06:51:38;;;;;;;33.17;8.93;;;;;;;;;;5076469;28;20032;-74
2023/09/29 06:54:04;;;;;;;20.25;6.75;;;;;;;;;;5076841;28;20504;-74
2023/09/29 06:56:30;;;;;;;15.30;6.80;;;;;;;;;;5076893;28;20574;-74
2023/09/29 06:58:56;;;;;;;21.45;8.00;;;;;;;;;;5091984;28;20028;-74
2023/09/29 07:01:22;;;;;;;24.35;8.85;;;;;;;;;;5075647;28;20043;-73
2023/09/29 07:03:48;;;;;;;16.23;6.80;;;;;;;;;;5076355;28;20024;-75
2023/09/29 07:06:15;;;;;;;30.30;7.70;;;;;;;;;;5074820;28;20029;-75
2023/09/29 07:08:42;;;;;;;13.77;6.50;;;;;;;;;;5076729;28;20102;-74
2023/09/29 07:11:08;;;;;;;34.25;9.15;;;;;;;;;;5076793;28;20040;-75
2023/09/29 07:13:34;;;;;;;14.48;8.43;;;;;;;;;;5077332;28;20028;-74
2023/09/29 07:15:59;;;;;;;23.67;9.02;;;;;;;;;;5075767;28;20528;-74
2023/09/29 07:18:25;;;;;;;20.30;8.55;;;;;;;;;;5077393;28;20050;-75
2023/09/29 07:20:53;;;;;;;20.38;6.90;;;;;;;;;;5077448;28;20078;-73
2023/09/29 07:23:23;;;;;;;22.02;7.22;;;;;;;;;;5075433;28;20036;-74
2023/09/29 07:25:54;;;;;;;15.32;6.93;;;;;;;;;;5076517;28;20055;-73
2023/09/29 07:28:23;;;;;;;15.02;6.70;;;;;;;;;;5071832;28;20415;-76
2023/09/29 07:30:50;;;;;;;12.40;6.45;;;;;;;;;;5072261;28;20525;-73
2023/09/29 07:33:16;;;;;;;23.15;6.80;;;;;;;;;;5073744;28;20036;-74
2023/09/29 07:35:45;;;;;;;22.52;8.02;;;;;;;;;;5073422;28;20024;-72
2023/09/29 07:38:12;;;;;;;20.17;7.65;;;;;;;;;;5072337;28;20055;-74
2023/09/29 07:40:38;;;;;;;21.45;6.68;;;;;;;;;;5069118;28;20024;-76
2023/09/29 07:43:05;;;;;;;19.38;6.82;;;;;;;;;;5068893;28;20173;-75
2023/09/29 07:45:34;;;;;;;12.48;6.60;;;;;;;;;;5069336;28;20081;-76
2023/09/29 07:48:00;;;;;;;14.65;6.15;;;;;;;;;;5073360;28;20071;-76
2023/09/29 07:50:25;;;;;;;14.68;6.35;;;;;;;;;;5073391;28;20063;-76
2023/09/29 07:52:52;;;;;;;18.33;6.03;;;;;;;;;;5073474;28;20033;-75
2023/09/29 07:55:18;;;;;;;13.45;6.05;;;;;;;;;;5073222;28;20047;-74
2023/09/29 07:57:46;;;;;;;16.85;6.63;;;;;;;;;;5073438;28;20041;-74
2023/09/29 08:00:12;;;;;;;13.73;6.60;;;;;;;;;;5071965;28;20029;-77
2023/09/29 08:02:39;;;;;;;19.05;6.55;;;;;;;;;;5071883;28;20044;-76
2023/09/29 08:05:07;;;;;;;17.25;7.72;;;;;;;;;;5072983;28;20093;-75
2023/09/29 08:07:33;;;;;;;15.35;6.20;;;;;;;;;;5073306;28;20036;-75
2023/09/29 08:09:59;;;;;;;14.10;6.45;;;;;;;;;;5072957;28;20041;-75
2023/09/29 08:12:25;;;;;;;12.75;6.40;;;;;;;;;;5072658;28;20072;-76
2023/09/29 08:14:51;;;;;;;16.02;6.13;;;;;;;;;;5073031;28;20070;-73
2023/09/29 08:17:20;;;;;;;9.77;6.10;;;;;;;;;;5073037;28;20044;-75
2023/09/29 08:19:47;;;;;;;15.05;6.60;;;;;;;;;;5073108;28;20398;-74
2023/09/29 08:22:12;;;;;;;15.77;6.53;;;;;;;;;;5072763;28;20044;-76
2023/09/29 08:24:39;;;;;;;19.05;6.30;;;;;;;;;;5072702;28;20028;-73
2023/09/29 08:27:06;;;;;;;15.57;6.32;;;;;;;;;;5080286;28;20047;-75
2023/09/29 08:29:33;;;;;;;12.43;6.30;;;;;;;;;;5093353;28;20477;-75
2023/09/29 08:32:00;;;;;;;17.08;7.13;;;;;;;;;;5091917;28;20062;-74
2023/09/29 08:34:28;;;;;;;14.20;7.10;;;;;;;;;;5092635;28;20020;-75
2023/09/29 08:36:54;;;;;;;16.48;7.82;;;;;;;;;;5092953;28;20531;-75
2023/09/29 08:39:20;;;;;;;17.20;7.38;;;;;;;;;;5092704;28;20048;-73
2023/09/29 08:41:54;;;;;;;18.38;6.85;;;;;;;;;;5091524;28;20024;-73
2023/09/29 08:44:25;;;;;;;17.77;5.75;;;;;;;;;;5092691;28;20051;-74
2023/09/29 08:46:52;;;;;;;14.55;6.18;;;;;;;;;;5092767;28;20069;-73
2023/09/29 08:49:20;;;;;;;13.70;7.10;;;;;;;;;;5092665;28;20012;-74
2023/09/29 08:51:46;;;;;;;14.90;6.20;;;;;;;;;;5092429;28;20036;-74
2023/09/29 08:54:15;;;;;;;13.20;6.13;;;;;;;;;;5092367;28;20386;-74
2023/09/29 08:56:41;;;;;;;13.40;7.28;;;;;;;;;;5089227;28;20026;-75
2023/09/29 08:59:07;;;;;;;13.43;7.13;;;;;;;;;;5072091;28;20027;-74
2023/09/29 09:01:32;;;;;;;13.25;6.85;;;;;;;;;;5072118;28;20409;-75
2023/09/29 09:03:59;;;;;;;12.52;5.70;;;;;;;;;;5072362;28;20095;-74
2023/09/29 09:06:27;;;;;;;10.50;5.95;;;;;;;;;;5071986;28;20056;-75
2023/09/29 09:08:54;;;;;;;13.93;5.88;;;;;;;;;;5071621;28;20028;-75
2023/09/29 09:11:20;;;;;;;13.57;5.32;;;;;;;;;;5071774;28;20094;-75
2023/09/29 09:13:59;;;;;;;12.50;5.35;;;;;;;;;;5071877;28;20016;-76
2023/09/29 09:16:26;;;;;;;14.27;6.13;;;;;;;;;;5052339;28;20033;-75
2023/09/29 09:18:53;;;;;;;12.20;5.53;;;;;;;;;;5050691;28;20012;-74
2023/09/29 09:21:20;;;;;;;11.73;5.30;;;;;;;;;;5051559;28;20502;-74
2023/09/29 09:23:46;;;;;;;11.55;5.15;;;;;;;;;;5051426;28;20119;-75
2023/09/29 09:26:17;;;;;;;8.80;5.07;;;;;;;;;;5051523;28;20116;-75
2023/09/29 09:28:43;;;;;;;12.50;5.25;;;;;;;;;;5050189;28;20041;-74
2023/09/29 09:31:10;;;;;;;13.27;5.18;;;;;;;;;;5051970;28;20036;-76
2023/09/29 09:33:35;;;;;;;12.68;5.07;;;;;;;;;;5055282;28;20119;-74
2023/09/29 09:36:06;;;;;;;10.25;5.38;;;;;;;;;;5071779;28;20119;-74
2023/09/29 09:38:33;;;;;;;13.98;5.00;;;;;;;;;;5071679;28;20086;-74
2023/09/29 09:41:00;;;;;;;12.70;5.32;;;;;;;;;;5071451;28;20060;-76
2023/09/29 09:43:28;;;;;;;19.25;9.82;;;;;;;;;;5070825;28;20043;-74
2023/09/29 09:46:03;;;;;;;14.73;5.40;;;;;;;;;;5071258;28;20063;-74
2023/09/29 09:48:51;;;;;;;11.20;5.32;;;;;;;;;;5084244;28;20040;-75
2023/09/29 09:51:31;;;;;;;12.20;5.32;;;;;;;;;;5088954;28;20505;-75
2023/09/29 09:54:02;;;;;;;13.18;5.72;;;;;;;;;;5089286;28;20028;-74
2023/09/29 09:56:50;;;;;;;12.95;5.43;;;;;;;;;;5090768;28;20456;-76
2023/09/29 09:59:16;;;;;;;14.35;5.65;;;;;;;;;;5090944;28;20044;-75
2023/09/29 10:01:45;;;;;;;11.63;5.05;;;;;;;;;;5092330;28;20409;-77
2023/09/29 10:04:13;;;;;;;14.77;4.95;;;;;;;;;;5090605;28;20042;-74
2023/09/29 10:06:44;;;;;;;18.55;5.60;;;;;;;;;;5090527;28;20052;-75
2023/09/29 10:09:11;;;;;;;17.45;4.90;;;;;;;;;;5088889;28;20513;-75
2023/09/29 10:11:42;;;;;;;10.57;5.28;;;;;;;;;;5058894;28;20051;-75
2023/09/29 10:14:10;;;;;;;14.80;5.60;;;;;;;;;;5099599;28;20335;-75
2023/09/29 10:16:38;;;;;;;9.82;4.63;;;;;;;;;;5096292;28;20020;-75
2023/09/29 10:19:05;;;;;;;10.70;4.78;;;;;;;;;;5093444;28;20032;-76
2023/09/29 10:21:45;;;;;;;9.88;4.72;;;;;;;;;;5092695;28;20020;-75
2023/09/29 10:24:23;;;;;;;8.93;4.03;;;;;;;;;;5096335;28;20055;-74
2023/09/29 10:26:49;;;;;;;11.40;4.50;;;;;;;;;;5091285;28;20461;-74
2023/09/29 10:29:38;;;;;;;13.75;3.90;;;;;;;;;;5089014;28;20048;-74
2023/09/29 10:32:10;;;;;;;7.80;4.03;;;;;;;;;;5089639;28;20054;-75
2023/09/29 10:35:05;;;;;;;10.45;3.95;;;;;;;;;;5091257;28;20028;-75
2023/09/29 10:37:41;;;;;;;10.27;4.20;;;;;;;;;;5091184;28;20036;-76
2023/09/29 10:40:19;;;;;;;7.65;4.40;;;;;;;;;;5089005;28;20119;-74
2023/09/29 10:42:46;;;;;;;13.68;3.95;;;;;;;;;;5091351;28;20457;-75
2023/09/29 10:45:24;;;;;;;8.15;4.40;;;;;;;;;;5091447;28;20052;-75
2023/09/29 10:47:50;;;;;;;12.98;4.40;;;;;;;;;;5089661;28;20477;-76
2023/09/29 10:50:16;;;;;;;11.00;4.47;;;;;;;;;;5090522;28;20036;-76
2023/09/29 10:52:43;;;;;;;11.52;4.07;;;;;;;;;;5090130;28;20036;-75
2023/09/29 10:55:12;;;;;;;15.60;4.22;;;;;;;;;;5090668;28;20074;-75
2023/09/29 10:57:38;;;;;;;13.13;4.45;;;;;;;;;;5091102;28;20036;-74
2023/09/29 11:00:05;;;;;;;13.77;4.72;;;;;;;;;;5090332;28;20024;-74
2023/09/29 11:02:32;;;;;;;10.88;4.32;;;;;;;;;;5093737;28;20028;-75
2023/09/29 11:05:07;;;;;;;12.50;3.97;;;;;;;;;;5094058;28;20027;-76
2023/09/29 11:07:52;;;;;;;14.07;4.10;;;;;;;;;;5094474;28;20047;-77
2023/09/29 11:10:19;;;;;;;13.20;4.15;;;;;;;;;;5095481;28;20056;-75
2023/09/29 11:12:48;;;;;;;13.32;3.88;;;;;;;;;;5093763;28;20051;-75
2023/09/29 11:15:16;;;;;;;10.70;4.38;;;;;;;;;;5094317;28;20039;-76
2023/09/29 11:17:46;;;;;;;9.68;4.15;;;;;;;;;;5094857;28;20070;-73
2023/09/29 11:20:24;;;;;;;16.35;4.30;;;;;;;;;;5094387;28;20394;-76
2023/09/29 11:23:06;;;;;;;13.40;3.65;;;;;;;;;;5093771;28;20092;-75
2023/09/29 11:25:32;;;;;;;5.57;3.28;;;;;;;;;;5094226;28;20481;-75
2023/09/29 11:27:57;;;;;;;16.30;4.18;;;;;;;;;;5092602;28;20084;-76
2023/09/29 11:30:25;;;;;;;10.57;3.58;;;;;;;;;;5093876;28;20064;-75
2023/09/29 11:32:52;;;;;;;16.77;3.95;;;;;;;;;;5093633;28;20077;-75
2023/09/29 11:35:18;;;;;;;11.10;3.30;;;;;;;;;;5093901;28;20554;-76
2023/09/29 11:37:45;;;;;;;10.35;3.45;;;;;;;;;;5094318;28;20020;-75
2023/09/29 11:40:16;;;;;;;7.15;3.60;;;;;;;;;;5094330;28;20039;-73
2023/09/29 11:42:45;;;;;;;10.88;3.45;;;;;;;;;;5094073;28;20028;-74
2023/09/29 11:45:10;;;;;;;9.30;3.40;;;;;;;;;;5093720;28;20030;-76
2023/09/29 11:47:41;;;;;;;9.95;2.83;;;;;;;;;;5093499;28;20032;-74
2023/09/29 11:50:11;;;;;;;14.40;3.85;;;;;;;;;;5093701;28;20024;-74
2023/09/29 11:52:39;;;;;;;8.55;2.90;;;;;;;;;;5093780;28;20040;-74
2023/09/29 11:55:11;;;;;;;11.20;3.47;;;;;;;;;;5093597;28;20047;-75
2023/09/29 11:57:40;;;;;;;11.00;3.45;;;;;;;;;;5094097;28;20114;-75
2023/09/29 12:00:10;;;;;;;8.77;3.60;;;;;;;;;;5093766;28;20115;-74
2023/09/29 12:02:39;;;;;;;21.73;4.68;;;;;;;;;;5093775;28;20047;-77
2023/09/29 12:05:06;;;;;;;9.73;2.75;;;;;;;;;;5093588;28;20507;-75
2023/09/29 12:07:33;;;;;;;18.10;3.17;;;;;;;;;;5093488;28;20077;-75
2023/09/29 12:09:59;;;;;;;12.52;2.80;;;;;;;;;;5093685;28;20106;-74
2023/09/29 12:12:26;;;;;;;12.50;3.78;;;;;;;;;;5092866;28;20553;-76
2023/09/29 12:14:53;;;;;;;10.15;3.20;;;;;;;;;;5093222;28;20024;-75
2023/09/29 12:17:20;;;;;;;13.23;3.50;;;;;;;;;;5093606;28;20028;-77
2023/09/29 12:19:49;;;;;;;12.32;3.20;;;;;;;;;;5094546;28;20024;-76
2023/09/29 12:22:15;;;;;;;14.63;3.70;;;;;;;;;;5093972;28;20103;-74
2023/09/29 12:24:40;;;;;;;8.40;3.35;;;;;;;;;;5093778;28;20051;-75
2023/09/29 12:27:10;;;;;;;14.73;3.95;;;;;;;;;;5093662;28;20035;-75
2023/09/29 12:29:36;;;;;;;8.90;3.00;;;;;;;;;;5094020;28;20016;-75
2023/09/29 12:32:03;;;;;;;7.15;3.00;;;;;;;;;;5092434;28;20543;-75
2023/09/29 12:34:32;;;;;;;6.05;2.83;;;;;;;;;;5086338;28;20109;-75
2023/09/29 12:37:02;;;;;;;8.63;2.80;;;;;;;;;;5072531;28;20496;-74
2023/09/29 12:39:28;;;;;;;11.93;3.80;;;;;;;;;;5072914;28;20032;-75
2023/09/29 12:41:55;;;;;;;11.80;3.15;;;;;;;;;;5072604;28;20032;-75
2023/09/29 12:44:21;;;;;;;10.38;2.95;;;;;;;;;;5072662;28;20036;-75
2023/09/29 12:46:46;;;;;;;15.10;3.53;;;;;;;;;;5072461;28;20554;-76
2023/09/29 12:49:12;;;;;;;6.65;2.85;;;;;;;;;;5072383;28;20051;-74
2023/09/29 12:51:38;;;;;;;11.18;3.70;;;;;;;;;;5072360;28;20104;-74
2023/09/29 12:54:04;;;;;;;11.95;3.58;;;;;;;;;;5071955;28;20502;-75
2023/09/29 12:56:30;;;;;;;9.43;2.63;;;;;;;;;;5071697;28;20052;-75
2023/09/29 12:58:56;;;;;;;12.48;3.80;;;;;;;;;;5071767;28;20032;-74
2023/09/29 13:01:23;;;;;;;6.93;2.55;;;;;;;;;;5071796;28;20031;-75
2023/09/29 13:03:49;;;;;;;10.00;3.35;;;;;;;;;;5071849;28;20036;-73
2023/09/29 13:06:15;;;;;;;8.95;3.28;;;;;;;;;;5071891;28;20073;-74
2023/09/29 13:08:41;;;;;;;13.63;3.05;;;;;;;;;;5071919;28;20128;-74
2023/09/29 13:11:06;;;;;;;14.75;3.22;;;;;;;;;;5071995;28;20035;-73
2023/09/29 13:13:32;;;;;;;9.32;3.10;;;;;;;;;;5072103;28;20170;-74
2023/09/29 13:16:01;;;;;;;12.52;3.10;;;;;;;;;;5066902;28;20020;-75
2023/09/29 13:18:29;;;;;;;14.57;4.03;;;;;;;;;;5070340;28;20115;-76
2023/09/29 13:20:55;;;;;;;6.60;2.63;;;;;;;;;;5064211;28;20048;-75
2023/09/29 13:23:21;;;;;;;8.60;2.83;;;;;;;;;;5072191;28;20457;-75
2023/09/29 13:25:47;;;;;;;12.77;3.25;;;;;;;;;;5070381;28;20028;-75
2023/09/29 13:28:13;;;;;;;7.18;2.38;;;;;;;;;;5071691;28;20044;-73
2023/09/29 13:30:39;;;;;;;12.52;3.35;;;;;;;;;;5071404;28;20054;-75
2023/09/29 13:33:05;;;;;;;12.20;3.00;;;;;;;;;;5071401;28;20401;-73
2023/09/29 13:35:30;;;;;;;14.35;3.40;;;;;;;;;;5071117;28;20078;-75
2023/09/29 13:37:56;;;;;;;12.60;3.35;;;;;;;;;;5071282;28;20044;-73
2023/09/29 13:40:22;;;;;;;6.40;2.60;;;;;;;;;;5071264;28;20027;-72
2023/09/29 13:42:48;;;;;;;10.65;3.05;;;;;;;;;;5071076;28;20433;-74
2023/09/29 13:45:14;;;;;;;10.25;3.67;;;;;;;;;;5070874;28;20111;-71
2023/09/29 13:47:40;;;;;;;6.65;2.90;;;;;;;;;;5066111;28;20041;-73
2023/09/29 13:50:08;;;;;;;12.68;3.30;;;;;;;;;;5051813;28;20410;-73
2023/09/29 13:52:34;;;;;;;10.60;3.17;;;;;;;;;;5055962;28;20040;-73
2023/09/29 13:55:00;;;;;;;9.35;2.70;;;;;;;;;;5052471;28;20111;-71
2023/09/29 13:57:26;;;;;;;6.57;2.95;;;;;;;;;;5051354;28;20147;-72
2023/09/29 13:59:53;;;;;;;9.57;3.25;;;;;;;;;;5051702;28;20017;-74
2023/09/29 14:02:20;;;;;;;11.27;3.15;;;;;;;;;;5051512;28;20529;-74
2023/09/29 14:04:47;;;;;;;14.18;4.18;;;;;;;;;;5050993;28;20044;-71
2023/09/29 14:07:13;;;;;;;11.23;3.15;;;;;;;;;;5066631;28;20037;-74
2023/09/29 14:09:39;;;;;;;9.45;3.47;;;;;;;;;;5051024;28;20487;-72
2023/09/29 14:12:07;;;;;;;7.57;2.70;;;;;;;;;;5051048;28;20524;-73
2023/09/29 14:14:34;;;;;;;6.40;3.13;;;;;;;;;;5051091;28;20029;-71
2023/09/29 14:17:00;;;;;;;8.85;3.30;;;;;;;;;;5051228;28;20037;-75
2023/09/29 14:19:26;;;;;;;6.82;2.88;;;;;;;;;;5050877;28;20035;-71
2023/09/29 14:21:53;;;;;;;11.32;3.60;;;;;;;;;;5051089;28;20028;-72
2023/09/29 14:24:19;;;;;;;11.35;3.05;;;;;;;;;;5050822;28;20025;-71
2023/09/29 14:26:45;;;;;;;6.75;2.88;;;;;;;;;;5051172;28;20036;-71
2023/09/29 14:29:12;;;;;;;7.72;2.70;;;;;;;;;;5062225;28;20032;-73
2023/09/29 14:31:44;;;;;;;7.90;2.72;;;;;;;;;;5071112;28;20487;-72
2023/09/29 14:34:14;;;;;;;7.22;3.50;;;;;;;;;;5070536;28;20516;-71